Time,TemperatureF,DewpointF,PressureIn,WindDirection,WindDirectionDegrees,WindSpeedMPH,WindSpeedGustMPH,Humidity,HourlyPrecipIn,Conditions,Clouds,dailyrainin,SolarRadiationWatts/m^2,SoftwareType,DateUTC
2013-05-26 00:09:00,50.8,47.0,30.02,NNE,21,2.0,4.0,87,0.00,,,0.00,0,weatherlink.com 1.10,2013-05-26 07:09:00,
2013-05-26 00:25:00,50.9,47.0,30.02,NE,49,1.0,4.0,86,0.00,,,0.00,0,weatherlink.com 1.10,2013-05-26 07:25:00,
2013-05-26 00:40:00,50.8,47.0,30.02,North,5,5.0,5.0,86,0.00,,,0.00,0,weatherlink.com 1.10,2013-05-26 07:40:00,
2013-05-26 00:55:00,51.3,47.0,30.02,North,350,4.0,6.0,86,0.00,,,0.00,0,weatherlink.com 1.10,2013-05-26 07:55:00,
2013-05-26 01:10:00,51.6,47.0,30.02,NNE,14,0.0,7.0,85,0.00,,,0.00,0,weatherlink.com 1.10,2013-05-26 08:10:00,
2013-05-26 01:25:00,51.6,47.0,30.02,NW,319,1.0,5.0,85,0.00,,,0.00,0,weatherlink.com 1.10,2013-05-26 08:25:00,
2013-05-26 01:40:00,51.3,47.0,30.02,North,360,3.0,5.0,85,0.00,,,0.00,0,weatherlink.com 1.10,2013-05-26 08:40:00,
2013-05-26 01:55:00,51.1,47.0,30.02,North,5,0.0,5.0,86,0.00,,,0.00,0,weatherlink.com 1.10,2013-05-26 08:55:00,
2013-05-26 02:10:00,51.6,48.0,30.03,NNE,19,0.0,6.0,86,0.00,,,0.00,0,weatherlink.com 1.10,2013-05-26 09:10:00,
2013-05-26 02:25:00,51.6,48.0,30.02,NNW,348,2.0,7.0,86,0.00,,,0.00,0,weatherlink.com 1.10,2013-05-26 09:25:00,
2013-05-26 02:40:00,52.0,49.0,30.02,North,350,3.0,7.0,88,0.00,,,0.00,0,weatherlink.com 1.10,2013-05-26 09:40:00,
2013-05-26 02:55:00,52.3,49.0,30.02,NW,323,2.0,5.0,88,0.00,,,0.00,0,weatherlink.com 1.10,2013-05-26 09:55:00,
2013-05-26 03:10:00,52.4,50.0,30.02,NNW,342,5.0,6.0,90,0.00,,,0.00,0,weatherlink.com 1.10,2013-05-26 10:10:00,
2013-05-26 03:25:00,52.3,50.0,30.02,NNW,327,1.0,7.0,90,0.00,,,0.00,0,weatherlink.com 1.10,2013-05-26 10:25:00,
2013-05-26 03:40:00,52.4,50.0,30.02,NW,315,4.0,7.0,90,0.00,,,0.00,0,weatherlink.com 1.10,2013-05-26 10:40:00,
2013-05-26 03:55:00,52.6,50.0,30.02,NW,314,4.0,7.0,91,0.00,,,0.00,0,weatherlink.com 1.10,2013-05-26 10:55:00,
2013-05-26 04:10:00,52.7,50.0,30.02,NNW,338,2.0,10.0,91,0.00,,,0.00,0,weatherlink.com 1.10,2013-05-26 11:10:00,
2013-05-26 04:25:00,52.5,50.0,30.03,NNW,329,5.0,10.0,91,0.00,,,0.00,0,weatherlink.com 1.10,2013-05-26 11:25:00,
2013-05-26 04:40:00,52.2,50.0,30.03,NW,307,2.0,11.0,92,0.00,,,0.00,0,weatherlink.com 1.10,2013-05-26 11:40:00,
2013-05-26 04:55:00,52.1,50.0,30.03,North,355,6.0,8.0,92,0.00,,,0.00,0,weatherlink.com 1.10,2013-05-26 11:55:00,
2013-05-26 05:10:00,52.1,50.0,30.03,North,360,5.0,11.0,92,0.00,,,0.00,0,weatherlink.com 1.10,2013-05-26 12:10:00,
2013-05-26 05:25:00,52.2,50.0,30.04,NNE,24,2.0,8.0,92,0.00,,,0.00,0,weatherlink.com 1.10,2013-05-26 12:25:00,
2013-05-26 05:40:00,52.1,50.0,30.04,NNW,340,7.0,7.0,92,0.00,,,0.00,0,weatherlink.com 1.10,2013-05-26 12:40:00,
2013-05-26 05:55:00,52.2,50.0,30.04,NNW,346,4.0,10.0,92,0.00,,,0.00,0,weatherlink.com 1.10,2013-05-26 12:55:00,
2013-05-26 06:10:00,52.3,50.0,30.05,North,355,5.0,9.0,92,0.00,,,0.00,9,weatherlink.com 1.10,2013-05-26 13:10:00,
2013-05-26 06:25:00,52.4,50.0,30.05,NE,37,2.0,13.0,92,0.00,,,0.00,23,weatherlink.com 1.10,2013-05-26 13:25:00,
2013-05-26 06:40:00,52.6,50.0,30.05,North,351,1.0,11.0,91,0.00,,,0.00,35,weatherlink.com 1.10,2013-05-26 13:40:00,
2013-05-26 06:55:00,52.8,50.0,30.06,North,5,2.0,9.0,91,0.00,,,0.00,40,weatherlink.com 1.10,2013-05-26 13:55:00,
2013-05-26 07:10:00,52.6,50.0,30.06,NNW,344,3.0,10.0,91,0.00,,,0.00,53,weatherlink.com 1.10,2013-05-26 14:10:00,
2013-05-26 07:25:00,52.8,50.0,30.06,North,11,4.0,10.0,91,0.00,,,0.00,142,weatherlink.com 1.10,2013-05-26 14:25:00,
2013-05-26 07:40:00,53.5,51.0,30.06,NNE,17,2.0,10.0,90,0.00,,,0.00,279,weatherlink.com 1.10,2013-05-26 14:40:00,
2013-05-26 07:55:00,54.9,52.0,30.07,NNE,15,1.0,8.0,88,0.00,,,0.00,248,weatherlink.com 1.10,2013-05-26 14:55:00,
2013-05-26 08:10:00,55.1,51.0,30.07,NNW,340,7.0,11.0,86,0.00,,,0.00,246,weatherlink.com 1.10,2013-05-26 15:10:00,
2013-05-26 08:25:00,56.1,52.0,30.07,NNW,333,7.0,7.0,85,0.00,,,0.00,285,weatherlink.com 1.10,2013-05-26 15:25:00,
2013-05-26 08:40:00,57.5,52.0,30.07,NNE,16,2.0,7.0,82,0.00,,,0.00,346,weatherlink.com 1.10,2013-05-26 15:40:00,
2013-05-26 08:56:00,58.4,52.0,30.07,NNE,24,1.0,11.0,79,0.00,,,0.00,367,weatherlink.com 1.10,2013-05-26 15:56:00,
2013-05-26 09:11:00,60.2,52.0,30.07,NNE,22,5.0,11.0,74,0.00,,,0.00,580,weatherlink.com 1.10,2013-05-26 16:11:00,
2013-05-26 09:26:00,61.6,52.0,30.07,WNW,290,7.0,9.0,71,0.00,,,0.00,589,weatherlink.com 1.10,2013-05-26 16:26:00,
2013-05-26 09:41:00,61.6,52.0,30.08,NNE,19,3.0,12.0,71,0.00,,,0.00,580,weatherlink.com 1.10,2013-05-26 16:41:00,
2013-05-26 09:56:00,60.7,52.0,30.08,NW,323,2.0,13.0,74,0.00,,,0.00,619,weatherlink.com 1.10,2013-05-26 16:56:00,
2013-05-26 10:11:00,61.2,52.0,30.08,NNW,332,4.0,12.0,71,0.00,,,0.00,666,weatherlink.com 1.10,2013-05-26 17:11:00,
2013-05-26 10:26:00,62.3,52.0,30.08,NNE,15,2.0,11.0,69,0.00,,,0.00,703,weatherlink.com 1.10,2013-05-26 17:26:00,
2013-05-26 10:41:00,61.8,52.0,30.08,NE,35,9.0,13.0,70,0.00,,,0.00,795,weatherlink.com 1.10,2013-05-26 17:41:00,
2013-05-26 10:56:00,62.6,52.0,30.08,WNW,287,11.0,13.0,69,0.00,,,0.00,816,weatherlink.com 1.10,2013-05-26 17:56:00,
2013-05-26 11:11:00,63.1,52.0,30.08,NW,310,6.0,16.0,68,0.00,,,0.00,816,weatherlink.com 1.10,2013-05-26 18:11:00,
2013-05-26 11:26:00,63.1,51.0,30.08,WNW,300,8.0,17.0,66,0.00,,,0.00,826,weatherlink.com 1.10,2013-05-26 18:26:00,
2013-05-26 11:41:00,63.9,51.0,30.09,WNW,298,6.0,15.0,64,0.00,,,0.00,865,weatherlink.com 1.10,2013-05-26 18:41:00,
2013-05-26 11:56:00,63.9,52.0,30.08,NW,311,4.0,13.0,65,0.00,,,0.00,882,weatherlink.com 1.10,2013-05-26 18:56:00,
2013-05-26 12:11:00,64.5,52.0,30.08,NNW,332,11.0,16.0,64,0.00,,,0.00,895,weatherlink.com 1.10,2013-05-26 19:11:00,
2013-05-26 12:26:00,62.2,51.0,30.08,NNW,344,7.0,18.0,68,0.00,,,0.00,898,weatherlink.com 1.10,2013-05-26 19:26:00,
2013-05-26 12:41:00,62.9,52.0,30.08,NW,311,9.0,15.0,68,0.00,,,0.00,744,weatherlink.com 1.10,2013-05-26 19:41:00,
2013-05-26 12:56:00,62.7,52.0,30.08,North,355,9.0,17.0,67,0.00,,,0.00,53,weatherlink.com 1.10,2013-05-26 19:56:00,
2013-05-26 13:11:00,62.3,52.0,30.08,NNW,333,12.0,19.0,69,0.00,,,0.00,53,weatherlink.com 1.10,2013-05-26 20:11:00,
2013-05-26 13:26:00,62.6,52.0,30.07,NE,40,7.0,17.0,68,0.00,,,0.00,54,weatherlink.com 1.10,2013-05-26 20:26:00,
2013-05-26 13:41:00,63.1,52.0,30.08,NW,305,9.0,19.0,67,0.00,,,0.00,766,weatherlink.com 1.10,2013-05-26 20:41:00,
2013-05-26 13:56:00,63.1,51.0,30.08,NNW,341,10.0,19.0,65,0.00,,,0.00,53,weatherlink.com 1.10,2013-05-26 20:56:00,
2013-05-26 14:11:00,63.5,51.0,30.07,NNW,338,7.0,14.0,64,0.00,,,0.00,53,weatherlink.com 1.10,2013-05-26 21:11:00,
2013-05-26 14:26:00,64.3,51.0,30.07,NW,317,10.0,15.0,63,0.00,,,0.00,842,weatherlink.com 1.10,2013-05-26 21:26:00,
2013-05-26 14:41:00,63.1,51.0,30.07,NE,46,7.0,21.0,64,0.00,,,0.00,823,weatherlink.com 1.10,2013-05-26 21:41:00,
2013-05-26 14:56:00,63.8,52.0,30.07,WNW,297,15.0,18.0,65,0.00,,,0.00,796,weatherlink.com 1.10,2013-05-26 21:56:00,
2013-05-26 15:11:00,64.8,52.0,30.07,North,355,9.0,16.0,63,0.00,,,0.00,770,weatherlink.com 1.10,2013-05-26 22:11:00,
2013-05-26 15:26:00,63.3,51.0,30.07,North,351,8.0,17.0,65,0.00,,,0.00,740,weatherlink.com 1.10,2013-05-26 22:26:00,
2013-05-26 15:41:00,63.0,51.0,30.07,NW,318,7.0,21.0,66,0.00,,,0.00,705,weatherlink.com 1.10,2013-05-26 22:41:00,
2013-05-26 15:56:00,62.9,51.0,30.06,West,275,7.0,17.0,66,0.00,,,0.00,673,weatherlink.com 1.10,2013-05-26 22:56:00,
2013-05-26 16:11:00,62.3,51.0,30.06,NNW,329,3.0,16.0,67,0.00,,,0.00,636,weatherlink.com 1.10,2013-05-26 23:11:00,
2013-05-26 16:26:00,62.8,52.0,30.07,NW,323,10.0,16.0,67,0.00,,,0.00,594,weatherlink.com 1.10,2013-05-26 23:26:00,
2013-05-26 16:41:00,62.5,51.0,30.07,NNW,336,7.0,17.0,67,0.00,,,0.00,457,weatherlink.com 1.10,2013-05-26 23:41:00,
2013-05-26 16:56:00,62.9,52.0,30.06,NNE,21,6.0,13.0,67,0.00,,,0.00,432,weatherlink.com 1.10,2013-05-26 23:56:00,
2013-05-26 17:11:00,64.3,52.0,30.06,NW,317,5.0,10.0,64,0.00,,,0.00,51,weatherlink.com 1.10,2013-05-27 00:11:00,
2013-05-26 17:26:00,64.0,51.0,30.06,WNW,303,6.0,11.0,63,0.00,,,0.00,420,weatherlink.com 1.10,2013-05-27 00:26:00,
2013-05-26 17:41:00,64.0,51.0,30.05,WNW,298,4.0,13.0,63,0.00,,,0.00,371,weatherlink.com 1.10,2013-05-27 00:41:00,
2013-05-26 17:56:00,63.5,51.0,30.05,NNW,327,4.0,11.0,64,0.00,,,0.00,327,weatherlink.com 1.10,2013-05-27 00:56:00,
2013-05-26 18:11:00,63.0,51.0,30.05,NNW,338,4.0,11.0,64,0.00,,,0.00,283,weatherlink.com 1.10,2013-05-27 01:11:00,
2013-05-26 18:26:00,62.3,50.0,30.05,NNW,341,5.0,13.0,65,0.00,,,0.00,236,weatherlink.com 1.10,2013-05-27 01:26:00,
2013-05-26 18:41:00,61.5,50.0,30.05,North,5,5.0,11.0,65,0.00,,,0.00,195,weatherlink.com 1.10,2013-05-27 01:41:00,
2013-05-26 18:56:00,60.7,50.0,30.05,West,259,6.0,13.0,68,0.00,,,0.00,141,weatherlink.com 1.10,2013-05-27 01:56:00,
2013-05-26 19:11:00,60.1,49.0,30.05,North,5,4.0,10.0,68,0.00,,,0.00,97,weatherlink.com 1.10,2013-05-27 02:11:00,
2013-05-26 19:26:00,59.3,50.0,30.06,North,11,2.0,10.0,70,0.00,,,0.00,58,weatherlink.com 1.10,2013-05-27 02:26:00,
2013-05-26 19:41:00,59.2,49.0,30.06,NNE,26,5.0,9.0,70,0.00,,,0.00,30,weatherlink.com 1.10,2013-05-27 02:41:00,
2013-05-26 19:56:00,57.8,49.0,30.07,NW,309,1.0,7.0,72,0.00,,,0.00,19,weatherlink.com 1.10,2013-05-27 02:56:00,
2013-05-26 20:11:00,56.7,49.0,30.07,NNW,333,4.0,8.0,75,0.00,,,0.00,11,weatherlink.com 1.10,2013-05-27 03:11:00,
2013-05-26 20:26:00,56.0,49.0,30.08,North,5,3.0,8.0,76,0.00,,,0.00,0,weatherlink.com 1.10,2013-05-27 03:26:00,
2013-05-26 20:41:00,55.1,48.0,30.08,North,351,5.0,10.0,78,0.00,,,0.00,0,weatherlink.com 1.10,2013-05-27 03:41:00,
2013-05-26 20:56:00,54.5,48.0,30.08,NW,323,2.0,9.0,80,0.00,,,0.00,0,weatherlink.com 1.10,2013-05-27 03:56:00,
2013-05-26 21:11:00,54.0,48.0,30.09,North,355,3.0,8.0,81,0.00,,,0.00,0,weatherlink.com 1.10,2013-05-27 04:11:00,
2013-05-26 21:26:00,53.5,48.0,30.09,NNW,328,3.0,9.0,82,0.00,,,0.00,0,weatherlink.com 1.10,2013-05-27 04:26:00,
2013-05-26 21:41:00,53.3,48.0,30.09,NW,326,2.0,6.0,83,0.00,,,0.00,0,weatherlink.com 1.10,2013-05-27 04:41:00,
2013-05-26 21:56:00,53.1,48.0,30.09,NW,319,5.0,7.0,83,0.00,,,0.00,0,weatherlink.com 1.10,2013-05-27 04:56:00,
2013-05-26 22:11:00,52.7,48.0,30.10,NNW,329,4.0,7.0,84,0.00,,,0.00,0,weatherlink.com 1.10,2013-05-27 05:11:00,
2013-05-26 22:26:00,52.5,48.0,30.10,North,355,3.0,8.0,85,0.00,,,0.00,0,weatherlink.com 1.10,2013-05-27 05:26:00,
2013-05-26 22:41:00,52.1,48.0,30.11,NNW,340,2.0,6.0,86,0.00,,,0.00,0,weatherlink.com 1.10,2013-05-27 05:41:00,
2013-05-26 22:57:00,51.8,48.0,30.10,ENE,65,2.0,5.0,86,0.00,,,0.00,0,weatherlink.com 1.10,2013-05-27 05:57:00,
2013-05-26 23:12:00,51.5,48.0,30.10,NNW,340,2.0,5.0,87,0.00,,,0.00,0,weatherlink.com 1.10,2013-05-27 06:12:00,
2013-05-26 23:27:00,51.5,48.0,30.09,North,355,6.0,7.0,87,0.00,,,0.00,0,weatherlink.com 1.10,2013-05-27 06:27:00,
2013-05-26 23:42:00,51.4,47.0,30.09,NNW,346,5.0,7.0,86,0.00,,,0.00,0,weatherlink.com 1.10,2013-05-27 06:42:00,
2013-05-26 23:57:00,51.3,47.0,30.09,NE,36,2.0,5.0,86,0.00,,,0.00,0,weatherlink.com 1.10,2013-05-27 06:57:00,